Poznań-Ławica Airport

Airport
ICAO code: 
EPPO
IATA Code: 
POZ
Summary
ICAO Region: 
EUR
Territory: 
Location: 
Poznań, Greater Poland
Serving: 
Poznań
Elevation: 
308 ft
Coordinates: 
Aerial View: 
52° 25' 14.987" N, 16° 49' 38.098" E
Airport RI: 
Runway Misidentification
Metar
Observation
EPPO 270300Z 25012KT 8000 OVC007 02/01 Q1019
Station
Poznan
Date/Time
2022-01-27 03:00:00
Wind direction
250°
Wind speed
12 kts
Lowest cloud amount
overcast
Temperature
2°C
Dew point
1°C
Humidity
93%
QNH
1019 hPa
Weather condition
n/a

Poznań-Ławica Airport, built in 1913, is one of the oldest airports in Poland. It is located 5 km west of Poznań city centre. It takes its name from the neighborhood of Ławica, part of the city's Grunwald district (the airport lies in Jeżyce district).

Climatology

Humid Continental climate (Köppen climate classification Dfb) - Variable weather patterns and a large seasonal temperature variance. Summers are often warm and humid with frequent thunderstorms and winters can be very cold with frequent snowfall and persistent snow cover.

Runways

Designator Length Width Surface Rops
10/28 2504 50 ASP Yes/Yes
Airport map: 
Aerial View: 

SKYbrary Partners:

Safety knowledge contributed by: